sensor_id;sensor_type;location;lat;lon;timestamp;temperature;humidity
13600;DHT22;6871;51.34740610;4.31323160;2023-07-31T03:45:29;22.70;79.90
13600;DHT22;6871;51.34740610;4.31323160;2023-07-31T03:47:59;22.70;79.80
13600;DHT22;6871;51.34740610;4.31323160;2023-07-31T03:50:28;22.60;79.80
13600;DHT22;6871;51.34740610;4.31323160;2023-07-31T03:52:57;22.70;79.80
13600;DHT22;6871;51.34740610;4.31323160;2023-07-31T03:55:26;22.70;79.80
13600;DHT22;6871;51.34740610;4.31323160;2023-07-31T03:57:55;22.70;79.70
13600;DHT22;6871;51.34740610;4.31323160;2023-07-31T04:00:24;22.70;79.60
13600;DHT22;6871;51.34740610;4.31323160;2023-07-31T04:02:54;22.70;79.50
13600;DHT22;6871;51.34740610;4.31323160;2023-07-31T04:05:24;22.70;79.50
13600;DHT22;6871;51.34740610;4.31323160;2023-07-31T04:07:54;22.70;79.60
13600;DHT22;6871;51.34740610;4.31323160;2023-07-31T04:10:23;22.70;79.60
13600;DHT22;6871;51.34740610;4.31323160;2023-07-31T04:12:52;22.70;79.50
13600;DHT22;6871;51.34740610;4.31323160;2023-07-31T04:15:21;22.70;79.50
13600;DHT22;6871;51.34740610;4.31323160;2023-07-31T04:17:50;22.70;79.50
13600;DHT22;6871;51.34740610;4.31323160;2023-07-31T04:20:20;22.70;79.50
13600;DHT22;6871;51.34740610;4.31323160;2023-07-31T04:22:49;22.70;79.60
13600;DHT22;6871;51.34740610;4.31323160;2023-07-31T04:25:19;22.70;79.60
13600;DHT22;6871;51.34740610;4.31323160;2023-07-31T04:27:48;22.70;79.60
13600;DHT22;6871;51.34740610;4.31323160;2023-07-31T04:30:17;22.60;79.70
13600;DHT22;6871;51.34740610;4.31323160;2023-07-31T04:32:46;22.70;79.70
13600;DHT22;6871;51.34740610;4.31323160;2023-07-31T04:35:15;22.70;79.80
13600;DHT22;6871;51.34740610;4.31323160;2023-07-31T04:37:45;22.60;81.00
13600;DHT22;6871;51.34740610;4.31323160;2023-07-31T04:40:16;22.60;80.80
13600;DHT22;6871;51.34740610;4.31323160;2023-07-31T04:42:45;22.60;80.90
13600;DHT22;6871;51.34740610;4.31323160;2023-07-31T04:45:15;22.60;80.70
13600;DHT22;6871;51.34740610;4.31323160;2023-07-31T04:47:44;22.60;80.60
13600;DHT22;6871;51.34740610;4.31323160;2023-07-31T04:50:13;22.70;80.70
13600;DHT22;6871;51.34740610;4.31323160;2023-07-31T04:52:42;22.60;80.60
13600;DHT22;6871;51.34740610;4.31323160;2023-07-31T04:55:12;22.70;80.70
13600;DHT22;6871;51.34740610;4.31323160;2023-07-31T04:57:42;22.70;80.60
13600;DHT22;6871;51.34740610;4.31323160;2023-07-31T05:00:13;22.70;80.50
13600;DHT22;6871;51.34740610;4.31323160;2023-07-31T05:02:42;22.70;80.50
13600;DHT22;6871;51.34740610;4.31323160;2023-07-31T05:05:13;22.70;80.50
13600;DHT22;6871;51.34740610;4.31323160;2023-07-31T05:07:42;22.70;80.40
13600;DHT22;6871;51.34740610;4.31323160;2023-07-31T05:10:12;22.60;80.40
13600;DHT22;6871;51.34740610;4.31323160;2023-07-31T05:12:41;22.60;80.40
13600;DHT22;6871;51.34740610;4.31323160;2023-07-31T05:15:11;22.60;82.60
13600;DHT22;6871;51.34740610;4.31323160;2023-07-31T05:17:40;22.40;82.50
13600;DHT22;6871;51.34740610;4.31323160;2023-07-31T05:20:11;22.40;82.50
13600;DHT22;6871;51.34740610;4.31323160;2023-07-31T05:22:41;22.50;82.30
13600;DHT22;6871;51.34740610;4.31323160;2023-07-31T05:25:11;22.50;83.00
13600;DHT22;6871;51.34740610;4.31323160;2023-07-31T05:27:40;22.50;81.90
13600;DHT22;6871;51.34740610;4.31323160;2023-07-31T05:30:11;22.60;81.80
13600;DHT22;6871;51.34740610;4.31323160;2023-07-31T05:32:40;22.60;81.70
13600;DHT22;6871;51.34740610;4.31323160;2023-07-31T05:35:09;22.60;81.60
13600;DHT22;6871;51.34740610;4.31323160;2023-07-31T05:37:42;22.60;81.60
13600;DHT22;6871;51.34740610;4.31323160;2023-07-31T05:40:12;22.50;81.50
13600;DHT22;6871;51.34740610;4.31323160;2023-07-31T05:42:41;22.60;81.40
13600;DHT22;6871;51.34740610;4.31323160;2023-07-31T05:45:13;22.60;81.30
13600;DHT22;6871;51.34740610;4.31323160;2023-07-31T05:47:42;22.60;81.30
13600;DHT22;6871;51.34740610;4.31323160;2023-07-31T05:50:12;22.60;81.30
13600;DHT22;6871;51.34740610;4.31323160;2023-07-31T05:52:42;22.60;81.20
13600;DHT22;6871;51.34740610;4.31323160;2023-07-31T05:55:12;22.60;81.20
13600;DHT22;6871;51.34740610;4.31323160;2023-07-31T05:57:43;22.60;81.20
13600;DHT22;6871;51.34740610;4.31323160;2023-07-31T06:00:16;22.60;81.10
13600;DHT22;6871;51.34740610;4.31323160;2023-07-31T06:02:45;22.50;81.00
13600;DHT22;6871;51.34740610;4.31323160;2023-07-31T06:05:15;22.60;81.20
13600;DHT22;6871;51.34740610;4.31323160;2023-07-31T06:07:44;22.60;81.20
13600;DHT22;6871;51.34740610;4.31323160;2023-07-31T06:10:14;22.60;81.20
13600;DHT22;6871;51.34740610;4.31323160;2023-07-31T06:12:44;22.50;81.10
13600;DHT22;6871;51.34740610;4.31323160;2023-07-31T06:15:13;22.50;81.00
13600;DHT22;6871;51.34740610;4.31323160;2023-07-31T06:17:42;22.60;81.00
13600;DHT22;6871;51.34740610;4.31323160;2023-07-31T06:20:12;22.50;81.00
13600;DHT22;6871;51.34740610;4.31323160;2023-07-31T06:22:42;22.50;81.00
13600;DHT22;6871;51.34740610;4.31323160;2023-07-31T06:25:31;22.60;81.20
13600;DHT22;6871;51.34740610;4.31323160;2023-07-31T06:28:03;22.50;81.00
13600;DHT22;6871;51.34740610;4.31323160;2023-07-31T06:44:03;22.50;81.40
13600;DHT22;6871;51.34740610;4.31323160;2023-07-31T06:46:33;22.50;81.40
13600;DHT22;6871;51.34740610;4.31323160;2023-07-31T06:52:38;22.50;81.50
13600;DHT22;6871;51.34740610;4.31323160;2023-07-31T06:58:37;22.50;81.40
13600;DHT22;6871;51.34740610;4.31323160;2023-07-31T07:01:08;22.50;81.40
13600;DHT22;6871;51.34740610;4.31323160;2023-07-31T07:03:40;22.50;81.40
13600;DHT22;6871;51.34740610;4.31323160;2023-07-31T07:06:09;22.50;81.40
13600;DHT22;6871;51.34740610;4.31323160;2023-07-31T07:08:41;22.50;81.50
13600;DHT22;6871;51.34740610;4.31323160;2023-07-31T07:11:12;22.50;81.40
13600;DHT22;6871;51.34740610;4.31323160;2023-07-31T07:13:43;22.50;81.00
13600;DHT22;6871;51.34740610;4.31323160;2023-07-31T07:16:13;22.50;81.10
13600;DHT22;6871;51.34740610;4.31323160;2023-07-31T07:18:43;22.50;81.30
13600;DHT22;6871;51.34740610;4.31323160;2023-07-31T07:21:16;22.50;81.20
13600;DHT22;6871;51.34740610;4.31323160;2023-07-31T07:23:45;22.50;81.20
13600;DHT22;6871;51.34740610;4.31323160;2023-07-31T07:26:14;22.50;81.20
13600;DHT22;6871;51.34740610;4.31323160;2023-07-31T07:28:44;22.50;81.00
13600;DHT22;6871;51.34740610;4.31323160;2023-07-31T07:31:13;22.50;81.00
13600;DHT22;6871;51.34740610;4.31323160;2023-07-31T07:33:42;22.50;81.20
13600;DHT22;6871;51.34740610;4.31323160;2023-07-31T07:36:11;22.50;81.20
13600;DHT22;6871;51.34740610;4.31323160;2023-07-31T07:38:41;22.50;81.10
13600;DHT22;6871;51.34740610;4.31323160;2023-07-31T07:41:10;22.50;81.10
13600;DHT22;6871;51.34740610;4.31323160;2023-07-31T07:43:39;22.50;81.10
13600;DHT22;6871;51.34740610;4.31323160;2023-07-31T07:46:14;22.50;81.10
13600;DHT22;6871;51.34740610;4.31323160;2023-07-31T07:48:45;22.50;81.10
13600;DHT22;6871;51.34740610;4.31323160;2023-07-31T07:51:14;22.50;81.20
13600;DHT22;6871;51.34740610;4.31323160;2023-07-31T07:53:43;22.50;81.20
13600;DHT22;6871;51.34740610;4.31323160;2023-07-31T07:56:12;22.50;81.20
13600;DHT22;6871;51.34740610;4.31323160;2023-07-31T07:58:41;22.50;81.10
13600;DHT22;6871;51.34740610;4.31323160;2023-07-31T08:01:10;22.50;81.10
13600;DHT22;6871;51.34740610;4.31323160;2023-07-31T08:03:39;22.50;81.40
13600;DHT22;6871;51.34740610;4.31323160;2023-07-31T08:06:09;22.40;82.20
13600;DHT22;6871;51.34740610;4.31323160;2023-07-31T08:08:38;22.40;82.50
13600;DHT22;6871;51.34740610;4.31323160;2023-07-31T08:11:07;22.40;82.00
13600;DHT22;6871;51.34740610;4.31323160;2023-07-31T08:13:36;22.50;82.50
13600;DHT22;6871;51.34740610;4.31323160;2023-07-31T08:16:06;22.50;81.70
13600;DHT22;6871;51.34740610;4.31323160;2023-07-31T08:18:36;22.50;81.70
13600;DHT22;6871;51.34740610;4.31323160;2023-07-31T08:21:06;22.50;81.70
13600;DHT22;6871;51.34740610;4.31323160;2023-07-31T08:23:35;22.60;81.60
13600;DHT22;6871;51.34740610;4.31323160;2023-07-31T08:26:05;22.50;81.50
13600;DHT22;6871;51.34740610;4.31323160;2023-07-31T08:28:35;22.60;81.50
13600;DHT22;6871;51.34740610;4.31323160;2023-07-31T08:31:04;22.60;81.20
13600;DHT22;6871;51.34740610;4.31323160;2023-07-31T08:33:33;22.60;81.50
13600;DHT22;6871;51.34740610;4.31323160;2023-07-31T08:36:03;22.60;81.30
13600;DHT22;6871;51.34740610;4.31323160;2023-07-31T08:38:32;22.60;81.10
13600;DHT22;6871;51.34740610;4.31323160;2023-07-31T08:41:03;22.60;81.60
13600;DHT22;6871;51.34740610;4.31323160;2023-07-31T08:43:33;22.60;80.50
13600;DHT22;6871;51.34740610;4.31323160;2023-07-31T08:46:03;22.60;80.70
13600;DHT22;6871;51.34740610;4.31323160;2023-07-31T08:48:32;22.70;80.80
13600;DHT22;6871;51.34740610;4.31323160;2023-07-31T08:51:02;22.70;81.60
13600;DHT22;6871;51.34740610;4.31323160;2023-07-31T08:53:32;22.60;80.70
13600;DHT22;6871;51.34740610;4.31323160;2023-07-31T08:56:01;22.60;80.60
13600;DHT22;6871;51.34740610;4.31323160;2023-07-31T08:58:33;22.70;80.50
13600;DHT22;6871;51.34740610;4.31323160;2023-07-31T09:01:05;22.70;80.30
13600;DHT22;6871;51.34740610;4.31323160;2023-07-31T09:03:35;22.60;80.40
13600;DHT22;6871;51.34740610;4.31323160;2023-07-31T09:06:06;22.70;80.70
13600;DHT22;6871;51.34740610;4.31323160;2023-07-31T09:08:36;22.70;80.70
13600;DHT22;6871;51.34740610;4.31323160;2023-07-31T09:11:06;22.70;80.70
13600;DHT22;6871;51.34740610;4.31323160;2023-07-31T09:13:35;22.70;80.20
13600;DHT22;6871;51.34740610;4.31323160;2023-07-31T09:16:05;22.60;80.60
13600;DHT22;6871;51.34740610;4.31323160;2023-07-31T09:18:42;22.70;80.60
13600;DHT22;6871;51.34740610;4.31323160;2023-07-31T09:21:12;22.60;80.90
13600;DHT22;6871;51.34740610;4.31323160;2023-07-31T09:23:42;22.70;80.70
13600;DHT22;6871;51.34740610;4.31323160;2023-07-31T09:26:11;22.70;80.40
13600;DHT22;6871;51.34740610;4.31323160;2023-07-31T09:28:42;22.70;80.40
13600;DHT22;6871;51.34740610;4.31323160;2023-07-31T09:31:11;22.70;80.40
13600;DHT22;6871;51.34740610;4.31323160;2023-07-31T09:33:54;22.60;80.70
13600;DHT22;6871;51.34740610;4.31323160;2023-07-31T09:36:24;22.60;80.50
13600;DHT22;6871;51.34740610;4.31323160;2023-07-31T09:38:54;22.70;80.90
13600;DHT22;6871;51.34740610;4.31323160;2023-07-31T09:41:23;22.60;80.70
13600;DHT22;6871;51.34740610;4.31323160;2023-07-31T09:43:54;22.60;80.50
13600;DHT22;6871;51.34740610;4.31323160;2023-07-31T09:46:27;22.70;80.80
13600;DHT22;6871;51.34740610;4.31323160;2023-07-31T09:49:05;22.70;81.20
13600;DHT22;6871;51.34740610;4.31323160;2023-07-31T09:54:11;22.60;81.30
13600;DHT22;6871;51.34740610;4.31323160;2023-07-31T09:56:44;22.70;80.90
13600;DHT22;6871;51.34740610;4.31323160;2023-07-31T09:59:16;22.60;80.90
13600;DHT22;6871;51.34740610;4.31323160;2023-07-31T10:01:46;22.70;80.80
13600;DHT22;6871;51.34740610;4.31323160;2023-07-31T10:04:18;22.60;81.00
13600;DHT22;6871;51.34740610;4.31323160;2023-07-31T10:06:51;22.60;80.90
13600;DHT22;6871;51.34740610;4.31323160;2023-07-31T10:09:22;22.70;80.80
13600;DHT22;6871;51.34740610;4.31323160;2023-07-31T10:12:00;22.60;80.90
13600;DHT22;6871;51.34740610;4.31323160;2023-07-31T10:14:27;22.70;81.10
13600;DHT22;6871;51.34740610;4.31323160;2023-07-31T10:16:57;22.70;81.20
13600;DHT22;6871;51.34740610;4.31323160;2023-07-31T10:19:28;22.70;81.10
13600;DHT22;6871;51.34740610;4.31323160;2023-07-31T10:24:33;22.70;81.20
13600;DHT22;6871;51.34740610;4.31323160;2023-07-31T10:29:43;22.60;81.40
13600;DHT22;6871;51.34740610;4.31323160;2023-07-31T10:32:15;22.70;81.20
13600;DHT22;6871;51.34740610;4.31323160;2023-07-31T10:37:23;22.70;80.90
13600;DHT22;6871;51.34740610;4.31323160;2023-07-31T10:40:00;22.70;81.10
13600;DHT22;6871;51.34740610;4.31323160;2023-07-31T10:42:31;22.60;81.30
13600;DHT22;6871;51.34740610;4.31323160;2023-07-31T10:45:05;22.60;81.20
13600;DHT22;6871;51.34740610;4.31323160;2023-07-31T10:47:38;22.60;81.90
13600;DHT22;6871;51.34740610;4.31323160;2023-07-31T10:50:26;22.60;81.90
13600;DHT22;6871;51.34740610;4.31323160;2023-07-31T10:52:56;22.50;82.20
13600;DHT22;6871;51.34740610;4.31323160;2023-07-31T10:55:31;22.50;82.80
13600;DHT22;6871;51.34740610;4.31323160;2023-07-31T10:58:08;22.50;82.20
13600;DHT22;6871;51.34740610;4.31323160;2023-07-31T11:00:39;22.40;83.00
13600;DHT22;6871;51.34740610;4.31323160;2023-07-31T11:03:10;22.50;82.70
13600;DHT22;6871;51.34740610;4.31323160;2023-07-31T11:05:45;22.50;82.10
13600;DHT22;6871;51.34740610;4.31323160;2023-07-31T11:08:17;22.50;81.80
13600;DHT22;6871;51.34740610;4.31323160;2023-07-31T11:10:48;22.60;82.00
13600;DHT22;6871;51.34740610;4.31323160;2023-07-31T11:13:17;22.60;82.00
13600;DHT22;6871;51.34740610;4.31323160;2023-07-31T11:15:46;22.60;82.00
13600;DHT22;6871;51.34740610;4.31323160;2023-07-31T11:18:15;22.70;81.80
13600;DHT22;6871;51.34740610;4.31323160;2023-07-31T11:20:46;22.70;81.70
13600;DHT22;6871;51.34740610;4.31323160;2023-07-31T11:23:19;22.70;81.80
13600;DHT22;6871;51.34740610;4.31323160;2023-07-31T11:25:48;22.70;81.50
13600;DHT22;6871;51.34740610;4.31323160;2023-07-31T11:28:19;22.70;81.70
13600;DHT22;6871;51.34740610;4.31323160;2023-07-31T11:30:48;22.70;81.10
13600;DHT22;6871;51.34740610;4.31323160;2023-07-31T11:33:17;22.70;81.30
13600;DHT22;6871;51.34740610;4.31323160;2023-07-31T11:35:48;22.70;81.60
13600;DHT22;6871;51.34740610;4.31323160;2023-07-31T11:38:23;22.70;81.60
13600;DHT22;6871;51.34740610;4.31323160;2023-07-31T11:40:53;22.70;81.50
13600;DHT22;6871;51.34740610;4.31323160;2023-07-31T11:43:23;22.70;81.50
13600;DHT22;6871;51.34740610;4.31323160;2023-07-31T11:45:54;22.70;81.40
13600;DHT22;6871;51.34740610;4.31323160;2023-07-31T11:48:26;22.70;81.60
13600;DHT22;6871;51.34740610;4.31323160;2023-07-31T11:50:57;22.60;81.50
13600;DHT22;6871;51.34740610;4.31323160;2023-07-31T11:53:28;22.60;81.60
13600;DHT22;6871;51.34740610;4.31323160;2023-07-31T11:56:00;22.60;81.50
13600;DHT22;6871;51.34740610;4.31323160;2023-07-31T11:58:30;22.70;81.50
13600;DHT22;6871;51.34740610;4.31323160;2023-07-31T12:01:00;22.70;81.30
13600;DHT22;6871;51.34740610;4.31323160;2023-07-31T12:03:30;22.70;81.10
13600;DHT22;6871;51.34740610;4.31323160;2023-07-31T12:06:00;22.70;81.40
13600;DHT22;6871;51.34740610;4.31323160;2023-07-31T12:08:30;22.60;81.80
13600;DHT22;6871;51.34740610;4.31323160;2023-07-31T12:11:05;22.60;82.40
13600;DHT22;6871;51.34740610;4.31323160;2023-07-31T12:13:35;22.60;82.50
13600;DHT22;6871;51.34740610;4.31323160;2023-07-31T12:16:07;22.60;82.50
13600;DHT22;6871;51.34740610;4.31323160;2023-07-31T12:21:12;22.70;83.00
13600;DHT22;6871;51.34740610;4.31323160;2023-07-31T12:23:44;22.70;82.50
13600;DHT22;6871;51.34740610;4.31323160;2023-07-31T12:26:16;22.70;82.10
13600;DHT22;6871;51.34740610;4.31323160;2023-07-31T12:31:22;22.70;81.20
13600;DHT22;6871;51.34740610;4.31323160;2023-07-31T12:33:55;22.70;81.20
13600;DHT22;6871;51.34740610;4.31323160;2023-07-31T12:36:25;22.70;81.40
13600;DHT22;6871;51.34740610;4.31323160;2023-07-31T12:38:56;22.70;81.90
13600;DHT22;6871;51.34740610;4.31323160;2023-07-31T12:41:27;22.70;81.90
13600;DHT22;6871;51.34740610;4.31323160;2023-07-31T12:43:57;22.70;81.60
13600;DHT22;6871;51.34740610;4.31323160;2023-07-31T12:52:07;22.60;82.80
13600;DHT22;6871;51.34740610;4.31323160;2023-07-31T12:54:37;22.70;82.60
13600;DHT22;6871;51.34740610;4.31323160;2023-07-31T13:02:17;22.70;82.40
13600;DHT22;6871;51.34740610;4.31323160;2023-07-31T13:07:23;22.70;82.90
13600;DHT22;6871;51.34740610;4.31323160;2023-07-31T13:09:53;22.70;82.80
13600;DHT22;6871;51.34740610;4.31323160;2023-07-31T13:12:22;22.70;82.80
13600;DHT22;6871;51.34740610;4.31323160;2023-07-31T13:14:53;22.70;83.00
13600;DHT22;6871;51.34740610;4.31323160;2023-07-31T13:17:22;22.70;82.80
13600;DHT22;6871;51.34740610;4.31323160;2023-07-31T13:19:56;22.60;85.00
13600;DHT22;6871;51.34740610;4.31323160;2023-07-31T13:22:25;22.30;90.80
13600;DHT22;6871;51.34740610;4.31323160;2023-07-31T13:24:59;22.20;91.00
13600;DHT22;6871;51.34740610;4.31323160;2023-07-31T13:27:30;22.30;90.40
13600;DHT22;6871;51.34740610;4.31323160;2023-07-31T13:30:00;22.40;90.00
13600;DHT22;6871;51.34740610;4.31323160;2023-07-31T13:32:31;22.40;88.60
13600;DHT22;6871;51.34740610;4.31323160;2023-07-31T13:35:02;22.50;88.70
13600;DHT22;6871;51.34740610;4.31323160;2023-07-31T13:37:41;22.50;88.50
13600;DHT22;6871;51.34740610;4.31323160;2023-07-31T13:40:30;22.60;87.80
13600;DHT22;6871;51.34740610;4.31323160;2023-07-31T13:43:10;22.60;87.50
13600;DHT22;6871;51.34740610;4.31323160;2023-07-31T13:45:46;22.60;87.40
13600;DHT22;6871;51.34740610;4.31323160;2023-07-31T13:48:15;22.60;87.10
13600;DHT22;6871;51.34740610;4.31323160;2023-07-31T13:50:46;22.60;86.30
13600;DHT22;6871;51.34740610;4.31323160;2023-07-31T13:53:17;22.60;86.30
13600;DHT22;6871;51.34740610;4.31323160;2023-07-31T13:55:47;22.70;86.60
13600;DHT22;6871;51.34740610;4.31323160;2023-07-31T13:58:17;22.70;86.70
13600;DHT22;6871;51.34740610;4.31323160;2023-07-31T14:00:48;22.60;86.50
13600;DHT22;6871;51.34740610;4.31323160;2023-07-31T14:03:18;22.70;86.40
13600;DHT22;6871;51.34740610;4.31323160;2023-07-31T14:05:47;22.40;89.40
13600;DHT22;6871;51.34740610;4.31323160;2023-07-31T14:08:17;22.40;89.70
13600;DHT22;6871;51.34740610;4.31323160;2023-07-31T14:10:47;22.40;89.00
13600;DHT22;6871;51.34740610;4.31323160;2023-07-31T14:13:17;22.50;88.60
13600;DHT22;6871;51.34740610;4.31323160;2023-07-31T14:15:47;22.50;88.20
13600;DHT22;6871;51.34740610;4.31323160;2023-07-31T14:18:18;22.50;88.20
13600;DHT22;6871;51.34740610;4.31323160;2023-07-31T14:20:48;22.50;87.90
13600;DHT22;6871;51.34740610;4.31323160;2023-07-31T14:23:17;22.50;87.90
13600;DHT22;6871;51.34740610;4.31323160;2023-07-31T14:25:48;22.50;87.30
13600;DHT22;6871;51.34740610;4.31323160;2023-07-31T14:28:17;22.50;86.90
13600;DHT22;6871;51.34740610;4.31323160;2023-07-31T14:30:46;22.60;86.60
13600;DHT22;6871;51.34740610;4.31323160;2023-07-31T14:33:15;22.60;86.60
13600;DHT22;6871;51.34740610;4.31323160;2023-07-31T14:35:45;22.60;86.50
13600;DHT22;6871;51.34740610;4.31323160;2023-07-31T14:38:17;22.60;86.60
13600;DHT22;6871;51.34740610;4.31323160;2023-07-31T14:40:46;22.60;86.20
13600;DHT22;6871;51.34740610;4.31323160;2023-07-31T14:43:15;22.60;86.10
13600;DHT22;6871;51.34740610;4.31323160;2023-07-31T14:45:44;22.60;85.80
13600;DHT22;6871;51.34740610;4.31323160;2023-07-31T14:48:16;22.60;85.60
13600;DHT22;6871;51.34740610;4.31323160;2023-07-31T14:50:47;22.60;85.80
13600;DHT22;6871;51.34740610;4.31323160;2023-07-31T15:10:46;22.40;88.10
13600;DHT22;6871;51.34740610;4.31323160;2023-07-31T15:21:03;22.50;86.80
13600;DHT22;6871;51.34740610;4.31323160;2023-07-31T15:30:57;22.50;86.30
13600;DHT22;6871;51.34740610;4.31323160;2023-07-31T23:11:18;22.00;85.30
13600;DHT22;6871;51.34740610;4.31323160;2023-07-31T23:26:52;22.00;85.00
13600;DHT22;6871;51.34740610;4.31323160;2023-07-31T23:29:27;22.00;84.80
13600;DHT22;6871;51.34740610;4.31323160;2023-07-31T23:31:56;22.00;84.80
13600;DHT22;6871;51.34740610;4.31323160;2023-07-31T23:34:44;22.00;84.80
13600;DHT22;6871;51.34740610;4.31323160;2023-07-31T23:54:24;22.00;84.40
